createdAt,value
2022-11-01T00:00:51.111Z,14.57
2022-11-01T00:11:26.139Z,13.73
2022-11-01T00:16:34.064Z,13.75
2022-11-01T00:34:07.895Z,14.85
2022-11-01T00:39:15.586Z,14.10
2022-11-01T00:44:39.786Z,16.08
2022-11-01T01:08:47.444Z,15.25
2022-11-01T01:14:04.149Z,15.85
2022-11-01T01:19:34.225Z,16.08
2022-11-01T01:24:56.709Z,16.92
2022-11-01T01:30:13.842Z,15.85
2022-11-01T01:35:27.912Z,16.27
2022-11-01T01:40:39.580Z,16.67
2022-11-01T01:45:46.618Z,16.45
2022-11-01T01:51:04.997Z,16.42
2022-11-01T01:56:11.038Z,16.65
2022-11-01T02:01:31.410Z,16.83
2022-11-01T02:06:47.009Z,17.05
2022-11-01T02:11:53.038Z,18.92
2022-11-01T02:17:27.151Z,18.63
2022-11-01T02:22:53.178Z,18.25
2022-11-01T02:28:41.105Z,19.23
2022-11-01T02:39:22.839Z,20.27
2022-11-01T02:44:48.656Z,20.60
2022-11-01T02:50:00.426Z,19.65
2022-11-01T03:01:00.972Z,21.13
2022-11-01T03:12:12.244Z,22.40
2022-11-01T03:17:50.229Z,21.88
2022-11-01T03:23:08.816Z,24.00
2022-11-01T03:28:34.929Z,23.38
2022-11-01T03:39:40.022Z,23.13
2022-11-01T03:45:14.051Z,23.35
2022-11-01T04:29:55.983Z,23.50
2022-11-01T04:44:44.330Z,22.65
2022-11-01T04:46:49.817Z,23.75
2022-11-01T04:51:46.407Z,23.65
2022-11-01T05:07:09.400Z,23.10
2022-11-01T05:12:21.556Z,24.60
2022-11-01T05:29:35.072Z,23.23
2022-11-01T07:11:31.760Z,25.17
2022-11-01T07:16:31.639Z,25.60
2022-11-01T07:21:28.799Z,26.67
2022-11-01T07:26:25.573Z,26.42
2022-11-01T07:31:22.420Z,26.02
2022-11-01T07:36:19.461Z,24.38
2022-11-01T07:41:16.601Z,24.00
2022-11-01T07:46:13.317Z,25.27
2022-11-01T07:51:09.868Z,26.35
2022-11-01T07:56:07.858Z,24.17
2022-11-01T08:01:04.517Z,22.10
2022-11-01T08:06:01.219Z,22.85
2022-11-01T08:17:36.565Z,21.40
2022-11-01T08:28:50.912Z,19.40
2022-11-01T08:33:47.551Z,19.90
2022-11-01T08:38:53.508Z,18.50
2022-11-01T08:49:50.001Z,17.67
2022-11-01T08:54:46.659Z,16.25
2022-11-01T08:59:43.281Z,20.10
2022-11-01T09:04:39.735Z,16.50
2022-11-01T09:09:36.291Z,14.75
2022-11-01T09:14:33.226Z,13.85
2022-11-01T09:19:29.806Z,12.75
2022-11-01T09:24:31.003Z,10.52
2022-11-01T09:29:27.773Z,10.38
2022-11-01T09:34:24.374Z,9.02
2022-11-01T09:39:22.202Z,7.38
2022-11-01T09:44:26.470Z,5.85
2022-11-01T09:49:27.438Z,4.30
2022-11-01T09:54:25.091Z,4.18
2022-11-01T09:59:31.237Z,4.07
2022-11-01T10:04:37.578Z,4.07
2022-11-01T10:09:57.390Z,4.05
2022-11-01T10:14:54.672Z,3.55
2022-11-01T10:19:52.227Z,4.38
2022-11-01T10:24:57.502Z,4.25
2022-11-01T10:30:11.104Z,4.20
2022-11-01T10:35:30.223Z,4.40
2022-11-01T10:40:54.321Z,3.97
2022-11-01T10:45:54.032Z,4.68
2022-11-01T10:50:51.985Z,4.10
2022-11-01T10:55:53.109Z,3.45
2022-11-01T11:00:49.772Z,4.22
2022-11-01T11:05:47.376Z,1.98
2022-11-01T11:10:44.999Z,1.85
2022-11-01T11:15:48.235Z,2.25
2022-11-01T17:04:07.192Z,2.97
2022-11-01T17:09:24.003Z,4.43
2022-11-01T17:14:50.479Z,3.03
2022-11-01T17:20:22.488Z,3.72
2022-11-01T17:33:02.285Z,2.70
2022-11-01T19:13:44.467Z,4.03
2022-11-01T20:43:59.566Z,1.70
